createdAt,value
2022-11-06T00:01:13.831Z,0
2022-11-06T00:02:30.936Z,0
2022-11-06T00:03:48.040Z,0
2022-11-06T00:05:05.145Z,0
2022-11-06T00:06:22.249Z,0
2022-11-06T00:07:39.354Z,0
2022-11-06T00:08:56.458Z,0
2022-11-06T00:10:13.563Z,0
2022-11-06T00:11:30.668Z,0
2022-11-06T00:12:47.772Z,0
2022-11-06T00:14:04.877Z,0
2022-11-06T00:15:21.981Z,0
2022-11-06T00:16:39.086Z,0
2022-11-06T00:17:55.207Z,0
2022-11-06T00:19:12.311Z,0
2022-11-06T00:20:29.416Z,0
2022-11-06T00:21:46.521Z,0
2022-11-06T00:23:03.626Z,0
2022-11-06T00:24:20.731Z,0
2022-11-06T00:25:37.835Z,0
2022-11-06T00:26:54.940Z,0
2022-11-06T00:28:12.044Z,0
2022-11-06T00:29:29.149Z,0
2022-11-06T00:30:46.253Z,0
2022-11-06T00:32:03.358Z,0
2022-11-06T00:33:20.463Z,0
2022-11-06T00:34:36.584Z,0
2022-11-06T00:35:53.688Z,0
2022-11-06T00:37:10.793Z,0
2022-11-06T00:38:27.897Z,0
2022-11-06T00:39:45.002Z,0
2022-11-06T00:41:02.107Z,0
2022-11-06T00:42:19.211Z,0
2022-11-06T00:43:36.316Z,0
2022-11-06T00:44:53.421Z,0
2022-11-06T00:46:10.525Z,0
2022-11-06T00:47:27.630Z,0
2022-11-06T00:48:44.734Z,0
2022-11-06T00:50:01.839Z,0
2022-11-06T00:51:17.959Z,0
2022-11-06T00:52:35.064Z,0
2022-11-06T00:53:52.169Z,0
2022-11-06T00:55:09.274Z,0
2022-11-06T00:56:26.379Z,0
2022-11-06T00:57:43.484Z,0
2022-11-06T00:59:00.588Z,0
2022-11-06T01:00:17.693Z,0
2022-11-06T01:01:34.797Z,0
2022-11-06T01:02:51.902Z,0
2022-11-06T01:04:09.007Z,0
2022-11-06T01:05:26.112Z,0
2022-11-06T01:06:43.216Z,0
2022-11-06T01:07:59.337Z,0
2022-11-06T01:09:16.442Z,0
2022-11-06T01:10:33.548Z,0
2022-11-06T01:11:50.652Z,0
2022-11-06T01:13:07.757Z,0
2022-11-06T01:14:24.862Z,0
2022-11-06T01:15:41.966Z,0
2022-11-06T01:16:59.071Z,0
2022-11-06T01:18:16.176Z,0
2022-11-06T01:19:33.280Z,0
2022-11-06T01:20:50.385Z,0
2022-11-06T01:22:07.489Z,0
2022-11-06T01:23:24.594Z,0
2022-11-06T01:24:40.715Z,0
2022-11-06T01:25:57.819Z,0
2022-11-06T01:27:14.924Z,0
2022-11-06T01:28:32.029Z,0
2022-11-06T01:29:49.134Z,0
2022-11-06T01:31:06.238Z,0
2022-11-06T01:32:23.343Z,0
2022-11-06T01:33:40.447Z,0
2022-11-06T01:34:57.552Z,0
2022-11-06T01:36:14.657Z,0
2022-11-06T01:37:31.761Z,0
2022-11-06T01:38:48.867Z,0
2022-11-06T01:40:05.971Z,0
2022-11-06T01:41:22.092Z,0
2022-11-06T01:42:39.197Z,0
2022-11-06T01:43:56.302Z,0
2022-11-06T01:45:13.407Z,0
2022-11-06T01:46:30.511Z,0
2022-11-06T01:47:47.616Z,0
2022-11-06T01:49:04.720Z,0
2022-11-06T01:50:21.826Z,0
2022-11-06T01:51:38.930Z,0
2022-11-06T01:52:56.035Z,0
2022-11-06T01:54:13.140Z,0
2022-11-06T01:55:30.244Z,0
2022-11-06T01:56:47.349Z,0
2022-11-06T01:58:03.470Z,0
2022-11-06T01:59:20.575Z,0
2022-11-06T02:00:37.680Z,0
2022-11-06T02:01:54.785Z,0
2022-11-06T02:03:11.889Z,0
2022-11-06T02:04:28.994Z,0
2022-11-06T02:05:46.099Z,0
2022-11-06T02:07:03.203Z,0
2022-11-06T02:08:20.308Z,0
2022-11-06T02:09:37.412Z,0
2022-11-06T02:10:54.517Z,0
2022-11-06T02:12:11.622Z,0
2022-11-06T02:13:28.727Z,0
2022-11-06T02:14:44.847Z,0
2022-11-06T02:16:01.952Z,0
2022-11-06T02:17:19.057Z,0
2022-11-06T02:18:36.161Z,0
2022-11-06T02:19:53.266Z,0
2022-11-06T02:21:10.370Z,0
2022-11-06T02:22:27.475Z,0
2022-11-06T02:23:44.580Z,0
2022-11-06T02:25:01.685Z,0
2022-11-06T02:26:18.789Z,0
2022-11-06T02:27:35.894Z,0
2022-11-06T02:28:52.998Z,0
2022-11-06T02:30:10.103Z,0
2022-11-06T02:31:26.224Z,0
2022-11-06T02:32:43.328Z,0
2022-11-06T02:34:00.433Z,0
2022-11-06T02:35:17.538Z,0
2022-11-06T02:36:34.642Z,0
2022-11-06T02:37:51.747Z,0
2022-11-06T02:39:07.867Z,0
2022-11-06T02:40:24.972Z,0
2022-11-06T02:41:42.076Z,0
2022-11-06T02:42:59.181Z,0
2022-11-06T02:44:16.285Z,0
2022-11-06T02:45:33.390Z,0
2022-11-06T02:46:50.495Z,0
2022-11-06T02:48:07.600Z,0
2022-11-06T02:49:24.704Z,0
2022-11-06T02:50:41.809Z,0
2022-11-06T02:51:58.913Z,0
2022-11-06T02:53:16.018Z,0
2022-11-06T02:54:33.122Z,0
2022-11-06T02:55:49.243Z,0
2022-11-06T02:57:06.348Z,0
2022-11-06T02:58:23.453Z,0
2022-11-06T02:59:40.557Z,0
2022-11-06T03:00:57.662Z,0
2022-11-06T03:02:14.766Z,0
2022-11-06T03:03:31.871Z,0
2022-11-06T03:04:48.975Z,0
2022-11-06T03:06:06.080Z,0
2022-11-06T03:07:23.185Z,0
2022-11-06T03:08:40.291Z,0
2022-11-06T03:09:57.395Z,0
2022-11-06T03:11:14.500Z,0
2022-11-06T03:12:30.620Z,0
2022-11-06T03:13:47.725Z,0
2022-11-06T03:15:04.830Z,0
2022-11-06T03:16:21.934Z,0
2022-11-06T03:17:39.039Z,0
2022-11-06T03:18:56.143Z,0
2022-11-06T03:20:13.248Z,0
2022-11-06T03:21:30.353Z,0
2022-11-06T03:22:47.457Z,0
2022-11-06T03:24:04.562Z,0
2022-11-06T03:25:21.666Z,0
2022-11-06T03:26:38.771Z,0
2022-11-06T03:27:55.875Z,0
2022-11-06T03:29:11.996Z,0
2022-11-06T03:30:29.100Z,0
2022-11-06T03:31:46.205Z,0
2022-11-06T03:33:03.310Z,0
2022-11-06T03:34:20.414Z,0
2022-11-06T03:35:37.517Z,0
2022-11-06T03:36:54.622Z,0
2022-11-06T03:38:11.726Z,0
2022-11-06T03:39:28.831Z,0
2022-11-06T03:40:45.935Z,0
2022-11-06T03:42:03.040Z,0
2022-11-06T03:43:20.145Z,0
2022-11-06T03:44:37.249Z,0
2022-11-06T03:45:53.370Z,0
2022-11-06T03:47:10.474Z,0
2022-11-06T03:48:27.579Z,0
2022-11-06T03:49:44.684Z,0
2022-11-06T03:51:01.788Z,0
2022-11-06T03:52:18.893Z,0
2022-11-06T03:53:35.998Z,0
2022-11-06T03:54:53.102Z,0
2022-11-06T03:56:10.207Z,0
2022-11-06T03:57:27.312Z,0
2022-11-06T03:58:44.417Z,0
2022-11-06T04:00:01.521Z,0
2022-11-06T04:01:18.626Z,0
2022-11-06T04:02:34.747Z,0
2022-11-06T04:03:51.851Z,0
2022-11-06T04:05:08.956Z,0
2022-11-06T04:06:26.061Z,0
2022-11-06T04:07:43.165Z,0
2022-11-06T04:09:00.270Z,0
2022-11-06T04:10:17.374Z,0
2022-11-06T04:11:34.479Z,0
2022-11-06T04:12:51.583Z,0
2022-11-06T04:14:08.688Z,0
2022-11-06T04:15:25.793Z,0
2022-11-06T04:16:42.898Z,0
2022-11-06T04:18:00.002Z,0
2022-11-06T04:19:16.123Z,0
2022-11-06T04:20:33.227Z,0
2022-11-06T04:21:50.332Z,0
2022-11-06T04:23:07.436Z,0
2022-11-06T04:24:24.541Z,0
2022-11-06T04:25:41.645Z,0
2022-11-06T04:26:58.750Z,0
2022-11-06T04:28:15.855Z,0
2022-11-06T04:29:32.959Z,0
2022-11-06T04:30:50.064Z,0
2022-11-06T04:32:07.168Z,0
2022-11-06T04:33:24.273Z,0
2022-11-06T04:34:41.377Z,0
2022-11-06T04:35:57.498Z,0
2022-11-06T04:37:14.603Z,0
2022-11-06T04:38:31.707Z,0
2022-11-06T04:39:48.812Z,0
2022-11-06T04:41:05.916Z,0
2022-11-06T04:42:23.021Z,0
2022-11-06T04:43:40.125Z,0
2022-11-06T04:44:57.230Z,0
2022-11-06T04:46:14.334Z,0
2022-11-06T04:47:31.439Z,0
2022-11-06T04:48:48.544Z,0
2022-11-06T04:50:05.648Z,0
2022-11-06T04:51:22.753Z,0
2022-11-06T04:52:38.873Z,0
2022-11-06T04:53:55.978Z,0
2022-11-06T04:55:13.083Z,0
2022-11-06T04:56:30.187Z,0
2022-11-06T04:57:47.292Z,0
2022-11-06T04:59:04.396Z,0
2022-11-06T05:00:21.501Z,0
2022-11-06T05:01:38.606Z,0
2022-11-06T05:02:55.711Z,0
2022-11-06T05:04:12.815Z,0
2022-11-06T05:05:29.920Z,0
2022-11-06T05:06:47.024Z,0
2022-11-06T05:08:04.129Z,0
2022-11-06T05:09:20.250Z,0
2022-11-06T05:10:37.354Z,0
2022-11-06T05:11:54.459Z,0
2022-11-06T05:13:11.564Z,0
2022-11-06T05:14:28.669Z,0
2022-11-06T05:15:45.773Z,0
2022-11-06T05:17:02.879Z,0
2022-11-06T05:18:19.984Z,0
2022-11-06T05:19:37.088Z,0
2022-11-06T05:20:54.193Z,0
2022-11-06T05:22:11.298Z,0
2022-11-06T05:23:28.403Z,0
2022-11-06T05:24:45.508Z,0
2022-11-06T05:26:01.629Z,0
2022-11-06T05:27:18.733Z,0
2022-11-06T05:28:35.838Z,0
2022-11-06T05:29:52.942Z,0
2022-11-06T05:31:10.047Z,0
2022-11-06T05:32:27.151Z,0
2022-11-06T05:33:44.256Z,0
2022-11-06T05:35:01.361Z,0
2022-11-06T05:36:18.465Z,0
2022-11-06T05:37:35.570Z,0
2022-11-06T05:38:52.675Z,0
2022-11-06T05:40:09.779Z,0
2022-11-06T05:41:26.884Z,0
2022-11-06T05:42:43.004Z,0
2022-11-06T05:44:00.109Z,0
2022-11-06T05:45:17.214Z,0
2022-11-06T05:46:34.318Z,0
2022-11-06T05:47:51.423Z,0
2022-11-06T05:49:08.527Z,0
2022-11-06T05:50:25.632Z,0
2022-11-06T05:51:42.737Z,0
2022-11-06T05:52:59.841Z,0
2022-11-06T05:54:16.946Z,0
2022-11-06T05:55:34.051Z,4
2022-11-06T05:56:51.155Z,0
2022-11-06T05:58:08.260Z,0
2022-11-06T05:59:24.381Z,4
2022-11-06T06:00:41.485Z,4
2022-11-06T06:01:58.590Z,4
2022-11-06T06:03:15.694Z,4
2022-11-06T06:04:32.799Z,8
2022-11-06T06:05:49.904Z,8
2022-11-06T06:07:07.009Z,12
2022-11-06T06:08:24.113Z,12
2022-11-06T06:09:41.218Z,20
2022-11-06T06:10:58.322Z,24
2022-11-06T06:12:15.427Z,36
2022-11-06T06:13:32.531Z,36
2022-11-06T06:14:49.636Z,48
2022-11-06T06:16:05.757Z,52
2022-11-06T06:17:22.861Z,60
2022-11-06T06:18:39.966Z,72
2022-11-06T06:19:57.071Z,80
2022-11-06T06:21:14.175Z,92
2022-11-06T06:22:31.280Z,108
2022-11-06T06:23:48.384Z,116
2022-11-06T06:25:05.489Z,124
2022-11-06T06:26:22.593Z,144
2022-11-06T06:27:39.698Z,156
2022-11-06T06:28:56.803Z,144
2022-11-06T06:30:13.907Z,156
2022-11-06T06:31:31.012Z,164
2022-11-06T06:32:47.133Z,188
2022-11-06T06:34:04.237Z,204
2022-11-06T06:35:21.342Z,220
2022-11-06T06:36:38.446Z,232
2022-11-06T06:37:55.551Z,264
2022-11-06T06:39:12.655Z,292
2022-11-06T06:40:29.760Z,324
2022-11-06T06:41:46.865Z,340
2022-11-06T06:43:03.969Z,364
2022-11-06T06:44:21.074Z,420
2022-11-06T06:45:38.178Z,488
2022-11-06T06:46:55.283Z,556
2022-11-06T06:48:12.387Z,600
2022-11-06T06:49:28.508Z,648
2022-11-06T06:50:45.613Z,664
2022-11-06T06:52:02.718Z,688
2022-11-06T06:53:19.822Z,760
2022-11-06T06:54:36.927Z,848
2022-11-06T06:55:54.031Z,964
2022-11-06T06:57:10.152Z,1044
2022-11-06T06:58:27.256Z,1192
2022-11-06T06:59:44.361Z,1244
2022-11-06T07:01:01.465Z,1384
2022-11-06T07:02:18.570Z,1444
2022-11-06T07:03:35.675Z,1584
2022-11-06T07:04:52.779Z,1776
2022-11-06T07:06:09.883Z,1856
2022-11-06T07:07:26.988Z,1816
2022-11-06T07:08:44.092Z,1836
2022-11-06T07:10:01.197Z,1884
2022-11-06T07:11:18.301Z,2168
2022-11-06T07:12:35.406Z,2280
2022-11-06T07:13:51.526Z,2332
2022-11-06T07:15:08.631Z,2212
2022-11-06T07:16:25.735Z,2412
2022-11-06T07:17:42.840Z,2428
2022-11-06T07:18:59.944Z,2492
2022-11-06T07:20:17.049Z,2528
2022-11-06T07:21:34.153Z,2752
2022-11-06T07:22:51.258Z,2936
2022-11-06T07:24:08.362Z,2796
2022-11-06T07:25:25.467Z,2760
2022-11-06T07:26:42.571Z,3000
2022-11-06T07:27:59.676Z,3212
2022-11-06T07:29:16.780Z,3168
2022-11-06T07:30:32.901Z,3224
2022-11-06T07:31:50.005Z,3248
2022-11-06T07:33:07.109Z,3356
2022-11-06T07:34:24.214Z,3032
2022-11-06T07:35:41.318Z,3156
2022-11-06T07:36:58.423Z,2900
2022-11-06T07:38:15.527Z,2924
2022-11-06T07:39:32.632Z,2292
2022-11-06T07:40:49.736Z,2484
2022-11-06T07:42:06.840Z,2532
2022-11-06T07:43:23.945Z,2148
2022-11-06T07:44:41.049Z,2004
2022-11-06T07:45:58.153Z,1944
2022-11-06T07:47:14.274Z,1912
2022-11-06T07:48:31.379Z,1996
2022-11-06T07:49:48.483Z,2108
2022-11-06T07:51:05.587Z,1876
2022-11-06T07:52:22.692Z,2148
2022-11-06T07:53:39.796Z,2160
2022-11-06T07:54:56.900Z,2552
2022-11-06T07:56:14.005Z,2448
2022-11-06T07:57:31.109Z,2260
2022-11-06T07:58:48.214Z,2696
2022-11-06T08:00:05.318Z,2624
2022-11-06T08:01:22.423Z,2428
2022-11-06T08:02:39.527Z,2712
2022-11-06T08:03:55.647Z,2728
2022-11-06T08:05:12.752Z,3032
2022-11-06T08:06:29.856Z,3284
2022-11-06T08:07:46.961Z,4616
2022-11-06T08:09:04.065Z,4268
2022-11-06T08:10:21.170Z,4372
2022-11-06T08:11:38.274Z,4392
2022-11-06T08:12:55.378Z,4612
2022-11-06T08:14:12.483Z,5768
2022-11-06T08:15:29.587Z,4304
2022-11-06T08:16:46.691Z,3560
2022-11-06T08:18:03.796Z,4056
2022-11-06T08:19:20.900Z,4708
2022-11-06T08:20:37.020Z,6144
2022-11-06T08:21:54.125Z,4912
2022-11-06T08:23:11.229Z,5988
2022-11-06T08:24:28.334Z,8236
2022-11-06T08:25:45.438Z,5748
2022-11-06T08:27:02.543Z,6352
2022-11-06T08:28:19.647Z,6016
2022-11-06T08:29:36.751Z,6472
2022-11-06T08:30:53.856Z,14036
2022-11-06T08:32:10.960Z,9376
2022-11-06T08:33:28.065Z,8668
2022-11-06T08:34:45.169Z,11180
2022-11-06T08:36:02.273Z,8748
2022-11-06T08:37:18.394Z,7320
2022-11-06T08:38:35.499Z,7556
2022-11-06T08:39:52.603Z,7152
2022-11-06T08:41:09.707Z,7040
2022-11-06T08:42:26.812Z,6496
2022-11-06T08:43:43.916Z,6304
2022-11-06T08:45:01.020Z,7244
2022-11-06T08:46:18.124Z,6756
2022-11-06T08:47:35.228Z,6884
2022-11-06T08:48:52.333Z,6772
2022-11-06T08:50:09.437Z,6436
2022-11-06T08:51:26.541Z,6116
2022-11-06T08:52:43.645Z,7296
2022-11-06T08:53:59.765Z,7096
2022-11-06T08:55:16.870Z,7832
2022-11-06T08:56:33.974Z,14460
2022-11-06T08:57:51.078Z,6796
2022-11-06T08:59:08.182Z,7420
2022-11-06T09:00:25.286Z,7268
2022-11-06T09:01:42.391Z,10292
2022-11-06T09:02:59.495Z,8020
2022-11-06T09:04:16.599Z,7044
2022-11-06T09:05:33.704Z,7496
2022-11-06T09:06:50.808Z,9896
2022-11-06T09:08:07.912Z,6860
2022-11-06T09:09:25.016Z,10004
2022-11-06T09:10:41.137Z,11808
2022-11-06T09:11:58.241Z,6696
2022-11-06T09:13:15.345Z,7388
2022-11-06T09:14:32.449Z,7564
2022-11-06T09:15:49.554Z,6452
2022-11-06T09:17:06.659Z,6800
2022-11-06T09:18:23.763Z,12156
2022-11-06T09:19:40.867Z,7856
2022-11-06T09:20:57.973Z,6872
2022-11-06T09:22:15.077Z,9912
2022-11-06T09:23:32.181Z,11836
2022-11-06T09:24:49.286Z,11112
2022-11-06T09:26:06.391Z,6560
2022-11-06T09:27:22.511Z,11100
2022-11-06T09:28:39.616Z,13068
2022-11-06T09:29:56.720Z,7412
2022-11-06T09:31:13.825Z,5980
2022-11-06T09:32:30.929Z,12076
2022-11-06T09:33:48.033Z,12112
2022-11-06T09:35:05.137Z,8068
2022-11-06T09:36:22.241Z,6488
2022-11-06T09:37:39.346Z,11764
2022-11-06T09:38:56.450Z,10820
2022-11-06T09:40:13.554Z,6932
2022-11-06T09:41:30.657Z,10944
2022-11-06T09:42:47.762Z,10420
2022-11-06T09:44:03.882Z,6576
2022-11-06T09:45:20.986Z,5600
2022-11-06T09:46:38.090Z,9612
2022-11-06T09:47:55.194Z,9700
2022-11-06T09:49:12.298Z,9592
2022-11-06T09:50:29.402Z,4932
2022-11-06T09:51:46.506Z,9428
2022-11-06T09:53:03.610Z,9260
2022-11-06T09:54:20.714Z,6392
2022-11-06T09:55:37.818Z,9080
2022-11-06T09:56:54.922Z,8876
2022-11-06T09:58:12.025Z,8840
2022-11-06T09:59:29.129Z,8808
2022-11-06T10:00:45.249Z,8736
2022-11-06T10:02:02.354Z,8496
2022-11-06T10:03:19.457Z,8660
2022-11-06T10:04:36.561Z,8668
2022-11-06T10:05:53.665Z,5832
2022-11-06T10:07:10.769Z,8360
2022-11-06T10:08:27.872Z,5376
2022-11-06T10:09:44.976Z,5392
2022-11-06T10:11:02.080Z,4144
2022-11-06T10:12:19.184Z,4340
2022-11-06T10:13:36.288Z,4048
2022-11-06T10:14:53.392Z,4316
2022-11-06T10:16:10.495Z,5996
2022-11-06T10:17:26.615Z,4936
2022-11-06T10:18:43.720Z,6488
2022-11-06T10:20:00.824Z,7372
2022-11-06T10:21:17.927Z,4828
2022-11-06T10:22:35.031Z,4512
2022-11-06T10:23:52.136Z,4216
2022-11-06T10:25:09.240Z,4156
2022-11-06T10:26:26.344Z,4192
2022-11-06T10:27:43.448Z,4252
2022-11-06T10:29:00.553Z,4292
2022-11-06T10:30:17.657Z,4376
2022-11-06T10:31:34.762Z,4612
2022-11-06T10:32:51.866Z,5060
2022-11-06T10:34:07.987Z,5720
2022-11-06T10:35:25.091Z,6420
2022-11-06T10:36:42.196Z,7176
2022-11-06T10:37:59.300Z,7128
2022-11-06T10:39:16.405Z,7940
2022-11-06T10:40:33.509Z,7724
2022-11-06T10:41:50.614Z,7704
2022-11-06T10:43:07.718Z,8056
2022-11-06T10:44:24.823Z,7564
2022-11-06T10:45:41.928Z,7052
2022-11-06T10:46:59.032Z,6888
2022-11-06T10:48:16.137Z,6820
2022-11-06T10:49:33.241Z,6612
2022-11-06T10:50:49.362Z,6348
2022-11-06T10:52:06.466Z,6292
2022-11-06T10:53:23.571Z,6104
2022-11-06T10:54:40.675Z,5956
2022-11-06T10:55:57.780Z,5644
2022-11-06T10:57:14.884Z,7008
2022-11-06T10:58:31.989Z,7548
2022-11-06T10:59:49.093Z,7588
2022-11-06T11:01:06.198Z,7588
2022-11-06T11:02:23.302Z,6884
2022-11-06T11:03:40.407Z,6132
2022-11-06T11:04:57.511Z,5776
2022-11-06T11:06:14.615Z,6984
2022-11-06T11:07:30.736Z,6016
2022-11-06T11:08:47.841Z,5652
2022-11-06T11:10:04.945Z,5568
2022-11-06T11:11:22.049Z,5572
2022-11-06T11:12:39.154Z,5620
2022-11-06T11:13:56.258Z,5660
2022-11-06T11:15:12.379Z,5708
2022-11-06T11:16:29.483Z,5820
2022-11-06T11:17:46.588Z,5964
2022-11-06T11:19:03.692Z,6112
2022-11-06T11:20:20.797Z,6608
2022-11-06T11:21:37.901Z,6236
2022-11-06T11:22:55.005Z,6276
2022-11-06T11:24:12.109Z,6332
2022-11-06T11:25:29.214Z,6172
2022-11-06T11:26:46.318Z,5992
2022-11-06T11:28:03.423Z,5860
2022-11-06T11:29:20.527Z,5772
2022-11-06T11:30:37.632Z,5776
2022-11-06T11:31:53.752Z,5908
2022-11-06T11:33:10.857Z,6440
2022-11-06T11:34:27.961Z,6128
2022-11-06T11:35:45.066Z,6172
2022-11-06T11:37:02.170Z,6344
2022-11-06T11:38:19.274Z,6384
2022-11-06T11:39:36.379Z,6484
2022-11-06T11:40:53.483Z,6584
2022-11-06T11:42:10.588Z,6628
2022-11-06T11:43:27.692Z,6716
2022-11-06T11:44:44.796Z,6768
2022-11-06T11:46:01.901Z,6832
2022-11-06T11:47:19.005Z,6772
2022-11-06T11:48:35.126Z,6740
2022-11-06T11:49:52.231Z,6764
2022-11-06T11:51:09.335Z,6800
2022-11-06T11:52:26.440Z,6828
2022-11-06T11:53:43.545Z,6856
2022-11-06T11:55:00.649Z,6832
2022-11-06T11:56:17.753Z,6812
2022-11-06T11:57:34.858Z,6704
2022-11-06T11:58:51.962Z,6568
2022-11-06T12:00:09.067Z,6436
2022-11-06T12:01:26.171Z,6264
2022-11-06T12:02:43.275Z,6092
2022-11-06T12:04:00.380Z,6000
2022-11-06T12:05:16.501Z,6004
2022-11-06T12:06:33.605Z,6004
2022-11-06T12:07:50.709Z,5976
2022-11-06T12:09:07.813Z,5916
2022-11-06T12:10:24.918Z,5896
2022-11-06T12:11:42.022Z,5960
2022-11-06T12:12:59.126Z,6080
2022-11-06T12:14:16.231Z,6340
2022-11-06T12:15:33.336Z,6724
2022-11-06T12:16:50.440Z,7576
2022-11-06T12:18:07.544Z,7560
2022-11-06T12:19:24.649Z,7124
2022-11-06T12:20:41.753Z,7228
2022-11-06T12:21:57.874Z,7300
2022-11-06T12:23:14.978Z,6696
2022-11-06T12:24:32.082Z,6436
2022-11-06T12:25:49.187Z,6228
2022-11-06T12:27:06.291Z,6180
2022-11-06T12:28:23.395Z,6500
2022-11-06T12:29:40.499Z,6480
2022-11-06T12:30:57.604Z,6632
2022-11-06T12:32:14.708Z,6724
2022-11-06T12:33:31.812Z,6888
2022-11-06T12:34:48.916Z,6844
2022-11-06T12:36:06.021Z,6816
2022-11-06T12:37:23.125Z,6804
2022-11-06T12:38:39.246Z,6740
2022-11-06T12:39:56.350Z,6612
2022-11-06T12:41:13.455Z,6476
2022-11-06T12:42:30.559Z,6460
2022-11-06T12:43:47.663Z,6472
2022-11-06T12:45:04.767Z,6492
2022-11-06T12:46:21.871Z,6632
2022-11-06T12:47:38.976Z,6744
2022-11-06T12:48:56.081Z,6808
2022-11-06T12:50:13.185Z,6820
2022-11-06T12:51:30.289Z,6724
2022-11-06T12:52:47.393Z,6776
2022-11-06T12:54:04.497Z,6964
2022-11-06T12:55:20.618Z,6984
2022-11-06T12:56:37.722Z,6908
2022-11-06T12:57:54.826Z,6540
2022-11-06T12:59:11.931Z,6364
2022-11-06T13:00:29.035Z,6352
2022-11-06T13:01:46.140Z,6900
2022-11-06T13:03:03.244Z,7276
2022-11-06T13:04:20.349Z,6892
2022-11-06T13:05:37.453Z,6460
2022-11-06T13:06:54.557Z,6376
2022-11-06T13:08:11.662Z,6256
2022-11-06T13:09:28.766Z,5404
2022-11-06T13:10:45.870Z,5144
2022-11-06T13:12:01.991Z,4920
2022-11-06T13:13:19.095Z,4832
2022-11-06T13:14:36.199Z,4848
2022-11-06T13:15:53.304Z,4824
2022-11-06T13:17:10.408Z,4720
2022-11-06T13:18:27.512Z,4652
2022-11-06T13:19:44.617Z,4600
2022-11-06T13:21:01.721Z,4576
2022-11-06T13:22:18.826Z,4520
2022-11-06T13:23:35.930Z,4468
2022-11-06T13:24:53.035Z,4356
2022-11-06T13:26:10.139Z,4224
2022-11-06T13:27:27.244Z,4120
2022-11-06T13:28:43.364Z,4020
2022-11-06T13:30:00.468Z,3936
2022-11-06T13:31:17.573Z,3848
2022-11-06T13:32:34.677Z,3772
2022-11-06T13:33:51.781Z,3740
2022-11-06T13:35:08.885Z,3728
2022-11-06T13:36:25.989Z,3728
2022-11-06T13:37:43.094Z,3724
2022-11-06T13:39:00.198Z,3684
2022-11-06T13:40:17.302Z,3612
2022-11-06T13:41:34.406Z,3532
2022-11-06T13:42:51.510Z,3464
2022-11-06T13:44:08.615Z,3396
2022-11-06T13:45:24.736Z,3348
2022-11-06T13:46:41.840Z,3324
2022-11-06T13:47:58.944Z,3292
2022-11-06T13:49:16.048Z,3260
2022-11-06T13:50:33.153Z,3248
2022-11-06T13:51:50.257Z,3296
2022-11-06T13:53:07.361Z,3328
2022-11-06T13:54:24.465Z,3292
2022-11-06T13:55:41.570Z,3180
2022-11-06T13:56:58.674Z,3048
2022-11-06T13:58:15.778Z,3004
2022-11-06T13:59:32.882Z,2988
2022-11-06T14:00:49.986Z,2976
2022-11-06T14:02:06.107Z,3016
2022-11-06T14:03:23.211Z,3116
2022-11-06T14:04:40.315Z,3256
2022-11-06T14:05:57.421Z,3420
2022-11-06T14:07:14.525Z,3528
2022-11-06T14:08:31.630Z,3644
2022-11-06T14:09:48.734Z,3800
2022-11-06T14:11:05.838Z,3968
2022-11-06T14:12:22.942Z,4088
2022-11-06T14:13:40.046Z,4132
2022-11-06T14:14:57.151Z,4048
2022-11-06T14:16:14.255Z,3868
2022-11-06T14:17:31.359Z,3636
2022-11-06T14:18:47.480Z,3336
2022-11-06T14:20:04.584Z,2964
2022-11-06T14:21:21.688Z,2684
2022-11-06T14:22:38.792Z,2524
2022-11-06T14:23:55.897Z,2428
2022-11-06T14:25:13.001Z,2340
2022-11-06T14:26:30.105Z,2280
2022-11-06T14:27:47.209Z,2240
2022-11-06T14:29:04.313Z,2232
2022-11-06T14:30:21.418Z,2256
2022-11-06T14:31:38.522Z,2312
2022-11-06T14:32:55.626Z,2364
2022-11-06T14:34:12.730Z,2404
2022-11-06T14:35:28.850Z,2440
2022-11-06T14:36:45.954Z,2452
2022-11-06T14:38:03.059Z,2444
2022-11-06T14:39:20.163Z,2388
2022-11-06T14:40:37.267Z,2276
2022-11-06T14:41:54.372Z,2120
2022-11-06T14:43:11.476Z,1944
2022-11-06T14:44:28.580Z,1780
2022-11-06T14:45:45.684Z,1640
2022-11-06T14:47:02.788Z,1536
2022-11-06T14:48:19.892Z,1468
2022-11-06T14:49:36.997Z,1404
2022-11-06T14:50:54.101Z,1352
2022-11-06T14:52:10.222Z,1316
2022-11-06T14:53:27.326Z,1300
2022-11-06T14:54:44.430Z,1296
2022-11-06T14:56:01.534Z,1292
2022-11-06T14:57:18.638Z,1276
2022-11-06T14:58:35.742Z,1252
2022-11-06T14:59:52.847Z,1228
2022-11-06T15:01:09.951Z,1212
2022-11-06T15:02:27.055Z,1192
2022-11-06T15:03:44.160Z,1168
2022-11-06T15:05:01.264Z,1144
2022-11-06T15:06:18.368Z,1116
2022-11-06T15:07:35.472Z,1076
2022-11-06T15:08:51.593Z,1024
2022-11-06T15:10:08.697Z,964
2022-11-06T15:11:25.801Z,904
2022-11-06T15:12:42.906Z,836
2022-11-06T15:14:00.010Z,752
2022-11-06T15:15:17.114Z,672
2022-11-06T15:16:34.219Z,604
2022-11-06T15:17:51.323Z,560
2022-11-06T15:19:08.428Z,532
2022-11-06T15:20:25.532Z,512
2022-11-06T15:21:42.637Z,504
2022-11-06T15:22:59.741Z,492
2022-11-06T15:24:16.846Z,480
2022-11-06T15:25:32.966Z,456
2022-11-06T15:26:50.070Z,424
2022-11-06T15:28:07.175Z,384
2022-11-06T15:29:24.279Z,348
2022-11-06T15:30:41.384Z,308
2022-11-06T15:31:58.488Z,268
2022-11-06T15:33:14.609Z,232
2022-11-06T15:34:31.714Z,200
2022-11-06T15:35:48.818Z,176
2022-11-06T15:37:05.923Z,156
2022-11-06T15:38:23.027Z,140
2022-11-06T15:39:40.132Z,124
2022-11-06T15:40:57.236Z,112
2022-11-06T15:42:14.341Z,108
2022-11-06T15:43:31.445Z,100
2022-11-06T15:44:48.550Z,100
2022-11-06T15:46:05.654Z,96
2022-11-06T15:47:22.759Z,88
2022-11-06T15:48:39.863Z,84
2022-11-06T15:49:55.984Z,76
2022-11-06T15:51:13.088Z,76
2022-11-06T15:52:30.193Z,68
2022-11-06T15:53:47.297Z,60
2022-11-06T15:55:04.402Z,56
2022-11-06T15:56:21.506Z,52
2022-11-06T15:57:38.611Z,48
2022-11-06T15:58:55.716Z,40
2022-11-06T16:00:12.820Z,36
2022-11-06T16:01:29.924Z,28
2022-11-06T16:02:47.029Z,24
2022-11-06T16:04:04.133Z,24
2022-11-06T16:05:21.239Z,16
2022-11-06T16:06:37.359Z,16
2022-11-06T16:07:54.464Z,12
2022-11-06T16:09:11.569Z,8
2022-11-06T16:10:28.674Z,8
2022-11-06T16:11:45.779Z,4
2022-11-06T16:13:02.883Z,4
2022-11-06T16:14:19.988Z,4
2022-11-06T16:15:37.092Z,4
2022-11-06T16:16:54.197Z,4
2022-11-06T16:18:11.301Z,0
2022-11-06T16:19:28.405Z,4
2022-11-06T16:20:45.510Z,4
2022-11-06T16:22:02.614Z,0
2022-11-06T16:23:18.735Z,0
2022-11-06T16:24:35.840Z,0
2022-11-06T16:25:52.944Z,0
2022-11-06T16:27:10.048Z,0
2022-11-06T16:28:27.153Z,0
2022-11-06T16:29:44.257Z,0
2022-11-06T16:31:01.362Z,0
2022-11-06T16:32:18.466Z,0
2022-11-06T16:33:35.571Z,0
2022-11-06T16:34:52.675Z,0
2022-11-06T16:36:09.780Z,0
2022-11-06T16:37:26.884Z,0
2022-11-06T16:38:43.989Z,0
2022-11-06T16:40:00.110Z,0
2022-11-06T16:41:17.214Z,0
2022-11-06T16:42:34.318Z,0
2022-11-06T16:43:51.423Z,0
2022-11-06T16:45:08.528Z,0
2022-11-06T16:46:25.632Z,0
2022-11-06T16:47:42.737Z,0
2022-11-06T16:48:59.841Z,0
2022-11-06T16:50:16.946Z,0
2022-11-06T16:51:34.050Z,0
2022-11-06T16:52:51.154Z,0
2022-11-06T16:54:08.259Z,0
2022-11-06T16:55:25.364Z,0
2022-11-06T16:56:41.485Z,0
2022-11-06T16:57:58.589Z,0
2022-11-06T16:59:15.694Z,0
2022-11-06T17:00:32.798Z,0
2022-11-06T17:01:49.902Z,0
2022-11-06T17:03:07.007Z,0
2022-11-06T17:04:24.111Z,0
2022-11-06T17:05:41.216Z,0
2022-11-06T17:06:58.321Z,0
2022-11-06T17:08:15.425Z,0
2022-11-06T17:09:32.530Z,0
2022-11-06T17:10:49.634Z,0
2022-11-06T17:12:06.739Z,0
2022-11-06T17:13:22.859Z,0
2022-11-06T17:14:39.964Z,0
2022-11-06T17:15:57.068Z,0
2022-11-06T17:17:14.173Z,0
2022-11-06T17:18:31.277Z,0
2022-11-06T17:19:48.382Z,0
2022-11-06T17:21:05.487Z,0
2022-11-06T17:22:22.591Z,0
2022-11-06T17:23:39.696Z,0
2022-11-06T17:24:56.800Z,0
2022-11-06T17:26:13.904Z,0
2022-11-06T17:27:31.009Z,0
2022-11-06T17:28:48.113Z,0
2022-11-06T17:30:04.234Z,0
2022-11-06T17:31:21.338Z,0
2022-11-06T17:32:38.443Z,0
2022-11-06T17:33:55.547Z,0
2022-11-06T17:35:12.652Z,0
2022-11-06T17:36:29.756Z,0
2022-11-06T17:37:46.860Z,0
2022-11-06T17:39:03.965Z,0
2022-11-06T17:40:21.069Z,0
2022-11-06T17:41:38.174Z,0
2022-11-06T17:42:55.278Z,0
2022-11-06T17:44:12.383Z,0
2022-11-06T17:45:29.488Z,0
2022-11-06T17:46:45.609Z,0
2022-11-06T17:48:02.713Z,0
2022-11-06T17:49:19.818Z,0
2022-11-06T17:50:36.923Z,0
2022-11-06T17:51:54.027Z,0
2022-11-06T17:53:11.131Z,0
2022-11-06T17:54:28.236Z,0
2022-11-06T17:55:45.340Z,0
2022-11-06T17:57:02.445Z,0